sensor_id;sensor_type;location;lat;lon;timestamp;P1;durP1;ratioP1;P2;durP2;ratioP2
20970;SDS011;10644;48.834;10.088;2023-08-21T00:01:17;14.07;;;11.67;;
20970;SDS011;10644;48.834;10.088;2023-08-21T00:03:43;15.77;;;11.37;;
20970;SDS011;10644;48.834;10.088;2023-08-21T00:06:10;14.90;;;12.47;;
20970;SDS011;10644;48.834;10.088;2023-08-21T00:08:36;17.27;;;11.30;;
20970;SDS011;10644;48.834;10.088;2023-08-21T00:11:01;14.70;;;11.80;;
20970;SDS011;10644;48.834;10.088;2023-08-21T00:13:26;20.27;;;11.87;;
20970;SDS011;10644;48.834;10.088;2023-08-21T00:15:52;13.70;;;12.07;;
20970;SDS011;10644;48.834;10.088;2023-08-21T00:18:17;14.17;;;12.17;;
20970;SDS011;10644;48.834;10.088;2023-08-21T00:20:43;16.47;;;12.37;;
20970;SDS011;10644;48.834;10.088;2023-08-21T00:23:08;20.03;;;11.50;;
20970;SDS011;10644;48.834;10.088;2023-08-21T00:25:34;20.37;;;11.93;;
20970;SDS011;10644;48.834;10.088;2023-08-21T00:27:59;14.47;;;11.43;;
20970;SDS011;10644;48.834;10.088;2023-08-21T00:30:25;17.13;;;11.70;;
20970;SDS011;10644;48.834;10.088;2023-08-21T00:32:50;15.67;;;12.20;;
20970;SDS011;10644;48.834;10.088;2023-08-21T00:35:16;15.87;;;12.80;;
20970;SDS011;10644;48.834;10.088;2023-08-21T00:37:41;20.73;;;13.27;;
20970;SDS011;10644;48.834;10.088;2023-08-21T00:40:06;15.93;;;13.17;;
20970;SDS011;10644;48.834;10.088;2023-08-21T00:42:32;19.10;;;12.00;;
20970;SDS011;10644;48.834;10.088;2023-08-21T00:44:58;19.20;;;11.80;;
20970;SDS011;10644;48.834;10.088;2023-08-21T00:47:23;16.50;;;12.00;;
20970;SDS011;10644;48.834;10.088;2023-08-21T00:49:48;22.93;;;12.40;;
20970;SDS011;10644;48.834;10.088;2023-08-21T00:52:14;14.50;;;12.27;;
20970;SDS011;10644;48.834;10.088;2023-08-21T00:54:40;15.47;;;11.37;;
20970;SDS011;10644;48.834;10.088;2023-08-21T00:57:06;14.60;;;11.73;;
20970;SDS011;10644;48.834;10.088;2023-08-21T00:59:34;18.33;;;10.83;;
20970;SDS011;10644;48.834;10.088;2023-08-21T01:01:59;21.83;;;12.67;;
20970;SDS011;10644;48.834;10.088;2023-08-21T01:04:25;23.27;;;12.43;;
20970;SDS011;10644;48.834;10.088;2023-08-21T01:06:50;12.50;;;10.63;;
20970;SDS011;10644;48.834;10.088;2023-08-21T01:09:24;15.20;;;12.07;;
20970;SDS011;10644;48.834;10.088;2023-08-21T01:12:09;13.50;;;11.20;;
20970;SDS011;10644;48.834;10.088;2023-08-21T01:15:00;21.73;;;12.70;;
20970;SDS011;10644;48.834;10.088;2023-08-21T01:17:31;17.23;;;12.20;;
20970;SDS011;10644;48.834;10.088;2023-08-21T01:19:59;19.63;;;13.10;;
20970;SDS011;10644;48.834;10.088;2023-08-21T01:22:26;13.63;;;11.57;;
20970;SDS011;10644;48.834;10.088;2023-08-21T01:24:53;12.83;;;11.53;;
20970;SDS011;10644;48.834;10.088;2023-08-21T01:27:19;15.10;;;11.50;;
20970;SDS011;10644;48.834;10.088;2023-08-21T01:29:46;20.70;;;12.33;;
20970;SDS011;10644;48.834;10.088;2023-08-21T01:32:14;14.43;;;12.27;;
20970;SDS011;10644;48.834;10.088;2023-08-21T01:34:43;27.80;;;13.53;;
20970;SDS011;10644;48.834;10.088;2023-08-21T01:37:11;17.30;;;12.67;;
20970;SDS011;10644;48.834;10.088;2023-08-21T01:39:37;13.70;;;11.93;;
20970;SDS011;10644;48.834;10.088;2023-08-21T01:42:02;16.10;;;13.03;;
20970;SDS011;10644;48.834;10.088;2023-08-21T01:44:27;14.23;;;11.13;;
20970;SDS011;10644;48.834;10.088;2023-08-21T01:46:53;19.50;;;11.80;;
20970;SDS011;10644;48.834;10.088;2023-08-21T01:49:19;16.73;;;12.67;;
20970;SDS011;10644;48.834;10.088;2023-08-21T01:51:46;16.03;;;13.00;;
20970;SDS011;10644;48.834;10.088;2023-08-21T01:54:14;18.70;;;13.20;;
20970;SDS011;10644;48.834;10.088;2023-08-21T01:56:39;25.23;;;14.00;;
20970;SDS011;10644;48.834;10.088;2023-08-21T01:59:04;20.13;;;13.40;;
20970;SDS011;10644;48.834;10.088;2023-08-21T02:01:31;22.60;;;12.87;;
20970;SDS011;10644;48.834;10.088;2023-08-21T02:03:57;15.27;;;12.73;;
20970;SDS011;10644;48.834;10.088;2023-08-21T02:06:24;14.43;;;11.53;;
20970;SDS011;10644;48.834;10.088;2023-08-21T02:08:50;20.60;;;12.27;;
20970;SDS011;10644;48.834;10.088;2023-08-21T02:11:15;15.30;;;12.33;;
20970;SDS011;10644;48.834;10.088;2023-08-21T02:13:41;17.73;;;12.73;;
20970;SDS011;10644;48.834;10.088;2023-08-21T02:16:06;19.90;;;13.53;;
20970;SDS011;10644;48.834;10.088;2023-08-21T02:18:31;16.97;;;12.53;;
20970;SDS011;10644;48.834;10.088;2023-08-21T02:20:57;22.57;;;12.43;;
20970;SDS011;10644;48.834;10.088;2023-08-21T02:23:22;16.17;;;12.20;;
20970;SDS011;10644;48.834;10.088;2023-08-21T02:25:49;24.13;;;13.20;;
20970;SDS011;10644;48.834;10.088;2023-08-21T02:28:15;19.90;;;13.53;;
20970;SDS011;10644;48.834;10.088;2023-08-21T02:30:40;20.73;;;13.50;;
20970;SDS011;10644;48.834;10.088;2023-08-21T02:33:06;21.70;;;13.20;;
20970;SDS011;10644;48.834;10.088;2023-08-21T02:35:32;23.17;;;14.00;;
20970;SDS011;10644;48.834;10.088;2023-08-21T02:37:59;16.70;;;13.00;;
20970;SDS011;10644;48.834;10.088;2023-08-21T02:40:25;22.50;;;13.40;;
20970;SDS011;10644;48.834;10.088;2023-08-21T02:42:50;18.13;;;13.43;;
20970;SDS011;10644;48.834;10.088;2023-08-21T02:45:15;22.43;;;12.80;;
20970;SDS011;10644;48.834;10.088;2023-08-21T02:47:44;20.33;;;14.77;;
20970;SDS011;10644;48.834;10.088;2023-08-21T02:50:10;30.27;;;14.80;;
20970;SDS011;10644;48.834;10.088;2023-08-21T02:52:36;28.87;;;14.10;;
20970;SDS011;10644;48.834;10.088;2023-08-21T02:55:02;18.27;;;13.23;;
20970;SDS011;10644;48.834;10.088;2023-08-21T02:57:28;24.63;;;13.60;;
20970;SDS011;10644;48.834;10.088;2023-08-21T02:59:54;22.10;;;13.40;;
20970;SDS011;10644;48.834;10.088;2023-08-21T03:02:20;16.67;;;11.97;;
20970;SDS011;10644;48.834;10.088;2023-08-21T03:04:46;23.43;;;13.77;;
20970;SDS011;10644;48.834;10.088;2023-08-21T03:07:13;16.63;;;12.80;;
20970;SDS011;10644;48.834;10.088;2023-08-21T03:09:39;20.40;;;13.20;;
20970;SDS011;10644;48.834;10.088;2023-08-21T03:12:05;33.27;;;15.57;;
20970;SDS011;10644;48.834;10.088;2023-08-21T03:14:34;18.23;;;13.33;;
20970;SDS011;10644;48.834;10.088;2023-08-21T03:16:59;21.93;;;13.10;;
20970;SDS011;10644;48.834;10.088;2023-08-21T03:19:25;20.30;;;13.53;;
20970;SDS011;10644;48.834;10.088;2023-08-21T03:21:50;18.33;;;13.13;;
20970;SDS011;10644;48.834;10.088;2023-08-21T03:24:18;22.63;;;14.83;;
20970;SDS011;10644;48.834;10.088;2023-08-21T03:26:43;18.97;;;13.43;;
20970;SDS011;10644;48.834;10.088;2023-08-21T03:29:09;20.90;;;12.13;;
20970;SDS011;10644;48.834;10.088;2023-08-21T03:31:34;19.40;;;13.70;;
20970;SDS011;10644;48.834;10.088;2023-08-21T03:34:00;17.07;;;13.10;;
20970;SDS011;10644;48.834;10.088;2023-08-21T03:36:25;20.77;;;13.37;;
20970;SDS011;10644;48.834;10.088;2023-08-21T03:38:57;20.60;;;12.57;;
20970;SDS011;10644;48.834;10.088;2023-08-21T03:41:23;14.10;;;12.00;;
20970;SDS011;10644;48.834;10.088;2023-08-21T03:43:48;22.93;;;13.37;;
20970;SDS011;10644;48.834;10.088;2023-08-21T03:46:13;18.77;;;13.47;;
20970;SDS011;10644;48.834;10.088;2023-08-21T03:48:39;25.30;;;15.00;;
20970;SDS011;10644;48.834;10.088;2023-08-21T03:51:04;17.80;;;14.50;;
20970;SDS011;10644;48.834;10.088;2023-08-21T03:53:32;19.13;;;14.57;;
20970;SDS011;10644;48.834;10.088;2023-08-21T03:55:57;21.80;;;14.43;;
20970;SDS011;10644;48.834;10.088;2023-08-21T03:58:22;19.63;;;14.63;;
20970;SDS011;10644;48.834;10.088;2023-08-21T04:00:50;20.27;;;14.40;;
20970;SDS011;10644;48.834;10.088;2023-08-21T04:03:15;22.57;;;14.80;;
20970;SDS011;10644;48.834;10.088;2023-08-21T04:05:41;22.40;;;14.80;;
20970;SDS011;10644;48.834;10.088;2023-08-21T04:08:06;15.50;;;13.17;;
20970;SDS011;10644;48.834;10.088;2023-08-21T04:10:31;23.60;;;14.40;;
20970;SDS011;10644;48.834;10.088;2023-08-21T04:12:57;31.83;;;14.23;;
20970;SDS011;10644;48.834;10.088;2023-08-21T04:15:22;16.00;;;12.67;;
20970;SDS011;10644;48.834;10.088;2023-08-21T04:17:47;17.90;;;13.37;;
20970;SDS011;10644;48.834;10.088;2023-08-21T04:20:13;21.27;;;13.60;;
20970;SDS011;10644;48.834;10.088;2023-08-21T04:22:38;22.67;;;16.30;;
20970;SDS011;10644;48.834;10.088;2023-08-21T04:25:03;20.80;;;14.67;;
20970;SDS011;10644;48.834;10.088;2023-08-21T04:27:29;27.67;;;14.70;;
20970;SDS011;10644;48.834;10.088;2023-08-21T04:29:54;36.80;;;16.87;;
20970;SDS011;10644;48.834;10.088;2023-08-21T04:32:20;32.50;;;16.73;;
20970;SDS011;10644;48.834;10.088;2023-08-21T04:34:46;49.63;;;17.00;;
20970;SDS011;10644;48.834;10.088;2023-08-21T04:37:11;40.37;;;17.83;;
20970;SDS011;10644;48.834;10.088;2023-08-21T04:39:36;28.57;;;14.60;;
20970;SDS011;10644;48.834;10.088;2023-08-21T04:42:02;24.73;;;14.03;;
20970;SDS011;10644;48.834;10.088;2023-08-21T04:44:27;39.50;;;17.27;;
20970;SDS011;10644;48.834;10.088;2023-08-21T04:46:52;38.17;;;17.07;;
20970;SDS011;10644;48.834;10.088;2023-08-21T04:49:18;35.17;;;15.33;;
20970;SDS011;10644;48.834;10.088;2023-08-21T04:51:43;25.60;;;16.03;;
20970;SDS011;10644;48.834;10.088;2023-08-21T04:54:08;38.67;;;17.03;;
20970;SDS011;10644;48.834;10.088;2023-08-21T04:56:34;39.70;;;17.00;;
20970;SDS011;10644;48.834;10.088;2023-08-21T04:58:59;26.47;;;15.27;;
20970;SDS011;10644;48.834;10.088;2023-08-21T05:01:24;38.83;;;17.37;;
20970;SDS011;10644;48.834;10.088;2023-08-21T05:03:52;33.80;;;17.03;;
20970;SDS011;10644;48.834;10.088;2023-08-21T05:06:19;34.23;;;16.20;;
20970;SDS011;10644;48.834;10.088;2023-08-21T05:08:44;37.57;;;17.53;;
20970;SDS011;10644;48.834;10.088;2023-08-21T05:11:10;38.27;;;16.50;;
20970;SDS011;10644;48.834;10.088;2023-08-21T05:13:35;30.20;;;16.40;;
20970;SDS011;10644;48.834;10.088;2023-08-21T05:16:01;30.93;;;16.40;;
20970;SDS011;10644;48.834;10.088;2023-08-21T05:18:26;30.97;;;15.63;;
20970;SDS011;10644;48.834;10.088;2023-08-21T05:20:53;34.97;;;17.60;;
20970;SDS011;10644;48.834;10.088;2023-08-21T05:23:20;36.43;;;17.13;;
20970;SDS011;10644;48.834;10.088;2023-08-21T05:25:46;36.10;;;17.83;;
20970;SDS011;10644;48.834;10.088;2023-08-21T05:28:13;34.20;;;17.10;;
20970;SDS011;10644;48.834;10.088;2023-08-21T05:30:38;33.60;;;16.40;;
20970;SDS011;10644;48.834;10.088;2023-08-21T05:33:03;44.73;;;18.20;;
20970;SDS011;10644;48.834;10.088;2023-08-21T05:35:32;46.53;;;19.47;;
20970;SDS011;10644;48.834;10.088;2023-08-21T05:38:01;41.40;;;17.40;;
20970;SDS011;10644;48.834;10.088;2023-08-21T05:40:30;32.60;;;16.60;;
20970;SDS011;10644;48.834;10.088;2023-08-21T05:43:16;83.63;;;38.50;;
20970;SDS011;10644;48.834;10.088;2023-08-21T05:59:48;46.53;;;19.70;;
20970;SDS011;10644;48.834;10.088;2023-08-21T06:02:14;45.40;;;18.57;;
20970;SDS011;10644;48.834;10.088;2023-08-21T06:04:40;41.83;;;17.80;;
20970;SDS011;10644;48.834;10.088;2023-08-21T06:07:06;46.10;;;21.23;;
20970;SDS011;10644;48.834;10.088;2023-08-21T06:09:32;44.13;;;19.50;;
20970;SDS011;10644;48.834;10.088;2023-08-21T06:11:59;42.57;;;18.43;;
20970;SDS011;10644;48.834;10.088;2023-08-21T06:14:26;36.47;;;19.10;;
20970;SDS011;10644;48.834;10.088;2023-08-21T06:16:58;37.70;;;18.20;;
20970;SDS011;10644;48.834;10.088;2023-08-21T06:19:25;35.60;;;17.20;;
20970;SDS011;10644;48.834;10.088;2023-08-21T06:21:50;36.13;;;16.10;;
20970;SDS011;10644;48.834;10.088;2023-08-21T06:24:16;40.43;;;17.83;;
20970;SDS011;10644;48.834;10.088;2023-08-21T06:26:41;35.20;;;17.67;;
20970;SDS011;10644;48.834;10.088;2023-08-21T06:29:07;38.67;;;16.77;;
20970;SDS011;10644;48.834;10.088;2023-08-21T06:31:32;37.23;;;16.10;;
20970;SDS011;10644;48.834;10.088;2023-08-21T06:33:58;31.73;;;16.40;;
20970;SDS011;10644;48.834;10.088;2023-08-21T06:36:23;43.27;;;18.90;;
20970;SDS011;10644;48.834;10.088;2023-08-21T06:38:48;36.00;;;17.00;;
20970;SDS011;10644;48.834;10.088;2023-08-21T06:41:14;40.93;;;18.17;;
20970;SDS011;10644;48.834;10.088;2023-08-21T06:43:39;39.03;;;17.00;;
20970;SDS011;10644;48.834;10.088;2023-08-21T06:46:04;32.03;;;15.07;;
20970;SDS011;10644;48.834;10.088;2023-08-21T06:48:30;39.60;;;17.17;;
20970;SDS011;10644;48.834;10.088;2023-08-21T06:50:56;32.40;;;17.07;;
20970;SDS011;10644;48.834;10.088;2023-08-21T06:53:21;39.17;;;17.90;;
20970;SDS011;10644;48.834;10.088;2023-08-21T06:55:47;41.37;;;20.43;;
20970;SDS011;10644;48.834;10.088;2023-08-21T06:58:12;36.80;;;17.10;;
20970;SDS011;10644;48.834;10.088;2023-08-21T07:00:38;44.77;;;20.47;;
20970;SDS011;10644;48.834;10.088;2023-08-21T07:03:12;43.53;;;19.37;;
20970;SDS011;10644;48.834;10.088;2023-08-21T07:05:38;36.33;;;16.63;;
20970;SDS011;10644;48.834;10.088;2023-08-21T07:08:05;38.87;;;18.50;;
20970;SDS011;10644;48.834;10.088;2023-08-21T07:10:35;34.03;;;17.53;;
20970;SDS011;10644;48.834;10.088;2023-08-21T07:13:03;31.53;;;16.53;;
20970;SDS011;10644;48.834;10.088;2023-08-21T07:15:29;35.70;;;16.20;;
20970;SDS011;10644;48.834;10.088;2023-08-21T07:17:54;36.87;;;16.60;;
20970;SDS011;10644;48.834;10.088;2023-08-21T07:20:20;47.60;;;17.97;;
20970;SDS011;10644;48.834;10.088;2023-08-21T07:22:46;36.47;;;16.47;;
20970;SDS011;10644;48.834;10.088;2023-08-21T07:25:12;37.60;;;16.50;;
20970;SDS011;10644;48.834;10.088;2023-08-21T07:27:38;29.87;;;16.70;;
20970;SDS011;10644;48.834;10.088;2023-08-21T07:30:04;31.70;;;17.20;;
20970;SDS011;10644;48.834;10.088;2023-08-21T07:32:30;33.83;;;17.20;;
20970;SDS011;10644;48.834;10.088;2023-08-21T07:34:56;31.97;;;17.50;;
20970;SDS011;10644;48.834;10.088;2023-08-21T07:37:21;41.97;;;17.53;;
20970;SDS011;10644;48.834;10.088;2023-08-21T07:39:47;38.07;;;17.30;;
20970;SDS011;10644;48.834;10.088;2023-08-21T07:42:12;57.73;;;22.47;;
20970;SDS011;10644;48.834;10.088;2023-08-21T07:44:38;35.20;;;15.43;;
20970;SDS011;10644;48.834;10.088;2023-08-21T07:47:04;44.07;;;17.03;;
20970;SDS011;10644;48.834;10.088;2023-08-21T07:49:30;37.30;;;16.30;;
20970;SDS011;10644;48.834;10.088;2023-08-21T07:51:56;39.57;;;20.23;;
20970;SDS011;10644;48.834;10.088;2023-08-21T07:54:21;40.70;;;19.03;;
20970;SDS011;10644;48.834;10.088;2023-08-21T07:56:49;32.83;;;15.87;;
20970;SDS011;10644;48.834;10.088;2023-08-21T07:59:18;41.80;;;17.70;;
20970;SDS011;10644;48.834;10.088;2023-08-21T08:01:47;45.20;;;17.37;;
20970;SDS011;10644;48.834;10.088;2023-08-21T08:04:15;32.60;;;15.90;;
20970;SDS011;10644;48.834;10.088;2023-08-21T08:06:45;32.53;;;15.43;;
20970;SDS011;10644;48.834;10.088;2023-08-21T08:09:10;59.27;;;19.13;;
20970;SDS011;10644;48.834;10.088;2023-08-21T08:11:35;31.27;;;15.57;;
20970;SDS011;10644;48.834;10.088;2023-08-21T08:14:01;32.07;;;15.43;;
20970;SDS011;10644;48.834;10.088;2023-08-21T08:16:26;27.60;;;14.33;;
20970;SDS011;10644;48.834;10.088;2023-08-21T08:18:52;29.23;;;15.60;;
20970;SDS011;10644;48.834;10.088;2023-08-21T08:21:19;31.60;;;14.67;;
20970;SDS011;10644;48.834;10.088;2023-08-21T08:23:47;23.50;;;13.63;;
20970;SDS011;10644;48.834;10.088;2023-08-21T08:26:12;35.30;;;14.70;;
20970;SDS011;10644;48.834;10.088;2023-08-21T08:28:38;36.37;;;16.27;;
20970;SDS011;10644;48.834;10.088;2023-08-21T08:31:03;23.67;;;14.10;;
20970;SDS011;10644;48.834;10.088;2023-08-21T08:33:29;30.27;;;14.37;;
20970;SDS011;10644;48.834;10.088;2023-08-21T08:35:55;30.87;;;14.90;;
20970;SDS011;10644;48.834;10.088;2023-08-21T08:38:23;26.90;;;15.33;;
20970;SDS011;10644;48.834;10.088;2023-08-21T08:40:48;34.63;;;15.07;;
20970;SDS011;10644;48.834;10.088;2023-08-21T08:43:16;29.17;;;13.90;;
20970;SDS011;10644;48.834;10.088;2023-08-21T08:45:43;47.93;;;17.43;;
20970;SDS011;10644;48.834;10.088;2023-08-21T08:48:14;27.33;;;13.17;;
20970;SDS011;10644;48.834;10.088;2023-08-21T08:50:40;41.77;;;15.33;;
20970;SDS011;10644;48.834;10.088;2023-08-21T08:53:07;19.63;;;11.70;;
20970;SDS011;10644;48.834;10.088;2023-08-21T08:55:35;32.00;;;13.53;;
20970;SDS011;10644;48.834;10.088;2023-08-21T08:58:00;24.10;;;11.57;;
20970;SDS011;10644;48.834;10.088;2023-08-21T09:00:28;24.10;;;13.70;;
20970;SDS011;10644;48.834;10.088;2023-08-21T09:02:53;24.13;;;11.67;;
20970;SDS011;10644;48.834;10.088;2023-08-21T09:05:20;24.20;;;12.43;;
20970;SDS011;10644;48.834;10.088;2023-08-21T09:07:45;35.33;;;14.23;;
20970;SDS011;10644;48.834;10.088;2023-08-21T09:10:14;30.17;;;12.50;;
20970;SDS011;10644;48.834;10.088;2023-08-21T09:12:45;25.10;;;12.13;;
20970;SDS011;10644;48.834;10.088;2023-08-21T09:15:11;29.47;;;12.60;;
20970;SDS011;10644;48.834;10.088;2023-08-21T09:17:36;48.83;;;15.40;;
20970;SDS011;10644;48.834;10.088;2023-08-21T09:20:07;35.83;;;12.40;;
20970;SDS011;10644;48.834;10.088;2023-08-21T09:22:34;31.80;;;11.40;;
20970;SDS011;10644;48.834;10.088;2023-08-21T09:28:22;75.40;;;21.83;;
20970;SDS011;10644;48.834;10.088;2023-08-21T09:31:13;29.63;;;11.07;;
20970;SDS011;10644;48.834;10.088;2023-08-21T09:51:22;64.00;;;19.30;;
20970;SDS011;10644;48.834;10.088;2023-08-21T10:42:47;57.83;;;13.60;;
20970;SDS011;10644;48.834;10.088;2023-08-21T11:02:37;54.37;;;12.47;;
20970;SDS011;10644;48.834;10.088;2023-08-21T11:09:01;34.07;;;10.40;;
20970;SDS011;10644;48.834;10.088;2023-08-21T11:12:18;22.43;;;8.73;;
20970;SDS011;10644;48.834;10.088;2023-08-21T11:15:09;58.50;;;16.43;;
20970;SDS011;10644;48.834;10.088;2023-08-21T11:18:08;23.53;;;9.50;;
20970;SDS011;10644;48.834;10.088;2023-08-21T11:24:00;70.87;;;19.13;;
20970;SDS011;10644;48.834;10.088;2023-08-21T11:30:14;37.53;;;11.40;;
20970;SDS011;10644;48.834;10.088;2023-08-21T11:32:47;18.87;;;8.67;;
20970;SDS011;10644;48.834;10.088;2023-08-21T11:35:31;23.30;;;9.40;;
20970;SDS011;10644;48.834;10.088;2023-08-21T11:38:02;45.53;;;11.73;;
20970;SDS011;10644;48.834;10.088;2023-08-21T11:40:59;54.47;;;12.97;;
20970;SDS011;10644;48.834;10.088;2023-08-21T11:47:16;113.03;;;29.30;;
20970;SDS011;10644;48.834;10.088;2023-08-21T11:50:04;29.00;;;9.63;;
20970;SDS011;10644;48.834;10.088;2023-08-21T11:52:33;20.30;;;8.43;;
20970;SDS011;10644;48.834;10.088;2023-08-21T11:55:09;23.03;;;9.63;;
20970;SDS011;10644;48.834;10.088;2023-08-21T11:57:47;22.53;;;9.10;;
20970;SDS011;10644;48.834;10.088;2023-08-21T12:00:15;22.73;;;9.00;;
20970;SDS011;10644;48.834;10.088;2023-08-21T12:02:57;24.93;;;9.90;;
20970;SDS011;10644;48.834;10.088;2023-08-21T12:05:27;25.40;;;9.50;;
20970;SDS011;10644;48.834;10.088;2023-08-21T12:08:01;31.13;;;10.90;;
20970;SDS011;10644;48.834;10.088;2023-08-21T12:10:29;31.33;;;10.70;;
20970;SDS011;10644;48.834;10.088;2023-08-21T12:13:35;31.43;;;10.63;;
20970;SDS011;10644;48.834;10.088;2023-08-21T12:16:13;20.77;;;9.10;;
20970;SDS011;10644;48.834;10.088;2023-08-21T12:18:52;34.47;;;11.93;;
20970;SDS011;10644;48.834;10.088;2023-08-21T12:24:33;42.83;;;12.87;;
20970;SDS011;10644;48.834;10.088;2023-08-21T12:31:15;70.40;;;18.93;;
20970;SDS011;10644;48.834;10.088;2023-08-21T12:34:42;34.27;;;10.63;;
20970;SDS011;10644;48.834;10.088;2023-08-21T12:37:38;30.27;;;11.53;;
20970;SDS011;10644;48.834;10.088;2023-08-21T12:40:06;30.00;;;11.80;;
20970;SDS011;10644;48.834;10.088;2023-08-21T12:42:35;20.03;;;9.83;;
20970;SDS011;10644;48.834;10.088;2023-08-21T12:45:00;40.50;;;13.43;;
20970;SDS011;10644;48.834;10.088;2023-08-21T12:47:31;24.03;;;10.77;;
20970;SDS011;10644;48.834;10.088;2023-08-21T12:50:04;22.30;;;9.60;;
20970;SDS011;10644;48.834;10.088;2023-08-21T12:52:30;18.40;;;9.20;;
20970;SDS011;10644;48.834;10.088;2023-08-21T12:54:55;17.83;;;9.30;;
20970;SDS011;10644;48.834;10.088;2023-08-21T12:57:24;15.50;;;8.97;;
20970;SDS011;10644;48.834;10.088;2023-08-21T12:59:51;18.50;;;9.57;;
20970;SDS011;10644;48.834;10.088;2023-08-21T13:02:17;18.87;;;10.47;;
20970;SDS011;10644;48.834;10.088;2023-08-21T13:04:43;37.90;;;12.63;;
20970;SDS011;10644;48.834;10.088;2023-08-21T13:07:11;31.10;;;11.17;;
20970;SDS011;10644;48.834;10.088;2023-08-21T13:09:36;30.57;;;11.63;;
20970;SDS011;10644;48.834;10.088;2023-08-21T13:12:02;23.10;;;11.10;;
20970;SDS011;10644;48.834;10.088;2023-08-21T13:14:30;42.27;;;15.20;;
20970;SDS011;10644;48.834;10.088;2023-08-21T13:16:55;38.10;;;11.60;;
20970;SDS011;10644;48.834;10.088;2023-08-21T13:19:21;24.20;;;10.80;;
20970;SDS011;10644;48.834;10.088;2023-08-21T13:21:48;24.57;;;11.47;;
20970;SDS011;10644;48.834;10.088;2023-08-21T13:24:14;22.73;;;10.23;;
20970;SDS011;10644;48.834;10.088;2023-08-21T13:26:40;16.23;;;9.27;;
20970;SDS011;10644;48.834;10.088;2023-08-21T13:29:05;20.50;;;10.00;;
20970;SDS011;10644;48.834;10.088;2023-08-21T13:31:32;41.47;;;15.30;;
20970;SDS011;10644;48.834;10.088;2023-08-21T13:33:57;23.47;;;10.70;;
20970;SDS011;10644;48.834;10.088;2023-08-21T13:36:23;41.50;;;12.37;;
20970;SDS011;10644;48.834;10.088;2023-08-21T13:38:48;20.67;;;9.90;;
20970;SDS011;10644;48.834;10.088;2023-08-21T14:06:06;39.90;;;11.70;;
20970;SDS011;10644;48.834;10.088;2023-08-21T14:09:10;42.57;;;11.60;;
20970;SDS011;10644;48.834;10.088;2023-08-21T14:11:36;27.63;;;11.17;;
20970;SDS011;10644;48.834;10.088;2023-08-21T14:14:03;28.40;;;10.40;;
20970;SDS011;10644;48.834;10.088;2023-08-21T14:20:25;24.00;;;8.93;;
20970;SDS011;10644;48.834;10.088;2023-08-21T14:27:22;52.53;;;12.70;;
20970;SDS011;10644;48.834;10.088;2023-08-21T15:05:05;31.63;;;10.40;;
20970;SDS011;10644;48.834;10.088;2023-08-21T15:07:30;20.87;;;8.77;;
20970;SDS011;10644;48.834;10.088;2023-08-21T15:09:58;24.03;;;9.20;;
20970;SDS011;10644;48.834;10.088;2023-08-21T15:12:23;25.77;;;9.53;;
20970;SDS011;10644;48.834;10.088;2023-08-21T15:14:49;17.73;;;8.47;;
20970;SDS011;10644;48.834;10.088;2023-08-21T15:17:14;23.57;;;8.53;;
20970;SDS011;10644;48.834;10.088;2023-08-21T15:19:39;23.13;;;8.70;;
20970;SDS011;10644;48.834;10.088;2023-08-21T15:22:05;33.63;;;10.40;;
20970;SDS011;10644;48.834;10.088;2023-08-21T15:24:30;19.40;;;8.80;;
20970;SDS011;10644;48.834;10.088;2023-08-21T15:26:56;33.40;;;9.67;;
20970;SDS011;10644;48.834;10.088;2023-08-21T15:29:21;13.23;;;7.40;;
20970;SDS011;10644;48.834;10.088;2023-08-21T15:31:46;22.67;;;9.13;;
20970;SDS011;10644;48.834;10.088;2023-08-21T15:34:12;27.87;;;9.73;;
20970;SDS011;10644;48.834;10.088;2023-08-21T15:36:37;25.10;;;9.37;;
20970;SDS011;10644;48.834;10.088;2023-08-21T15:39:03;25.53;;;8.93;;
20970;SDS011;10644;48.834;10.088;2023-08-21T15:41:28;33.87;;;11.00;;
20970;SDS011;10644;48.834;10.088;2023-08-21T15:43:53;28.20;;;10.50;;
20970;SDS011;10644;48.834;10.088;2023-08-21T15:46:19;19.43;;;9.30;;
20970;SDS011;10644;48.834;10.088;2023-08-21T15:48:44;27.87;;;10.53;;
20970;SDS011;10644;48.834;10.088;2023-08-21T15:51:10;15.57;;;7.67;;
20970;SDS011;10644;48.834;10.088;2023-08-21T15:53:35;22.40;;;8.50;;
20970;SDS011;10644;48.834;10.088;2023-08-21T15:56:01;26.73;;;10.30;;
20970;SDS011;10644;48.834;10.088;2023-08-21T15:58:27;16.67;;;7.87;;
20970;SDS011;10644;48.834;10.088;2023-08-21T16:00:53;23.97;;;9.23;;
20970;SDS011;10644;48.834;10.088;2023-08-21T16:03:18;20.57;;;9.03;;
20970;SDS011;10644;48.834;10.088;2023-08-21T16:05:44;25.67;;;9.07;;
20970;SDS011;10644;48.834;10.088;2023-08-21T16:08:18;63.67;;;20.33;;
20970;SDS011;10644;48.834;10.088;2023-08-21T16:10:48;31.70;;;10.63;;
20970;SDS011;10644;48.834;10.088;2023-08-21T16:13:14;20.97;;;8.87;;
20970;SDS011;10644;48.834;10.088;2023-08-21T16:15:42;24.37;;;9.43;;
20970;SDS011;10644;48.834;10.088;2023-08-21T16:18:08;18.43;;;8.30;;
20970;SDS011;10644;48.834;10.088;2023-08-21T16:20:35;21.77;;;9.43;;
20970;SDS011;10644;48.834;10.088;2023-08-21T16:23:00;24.67;;;9.17;;
20970;SDS011;10644;48.834;10.088;2023-08-21T16:25:26;23.20;;;9.27;;
20970;SDS011;10644;48.834;10.088;2023-08-21T16:27:51;16.30;;;7.87;;
20970;SDS011;10644;48.834;10.088;2023-08-21T16:30:17;24.63;;;8.60;;
20970;SDS011;10644;48.834;10.088;2023-08-21T16:32:42;22.20;;;9.03;;
20970;SDS011;10644;48.834;10.088;2023-08-21T16:35:07;20.50;;;9.40;;
20970;SDS011;10644;48.834;10.088;2023-08-21T16:37:33;19.50;;;8.33;;
20970;SDS011;10644;48.834;10.088;2023-08-21T16:39:58;31.00;;;10.40;;
20970;SDS011;10644;48.834;10.088;2023-08-21T16:42:24;19.33;;;8.33;;
20970;SDS011;10644;48.834;10.088;2023-08-21T16:44:49;19.63;;;8.57;;
20970;SDS011;10644;48.834;10.088;2023-08-21T16:47:14;23.90;;;9.20;;
20970;SDS011;10644;48.834;10.088;2023-08-21T16:49:40;21.70;;;8.50;;
20970;SDS011;10644;48.834;10.088;2023-08-21T16:52:05;26.30;;;9.10;;
20970;SDS011;10644;48.834;10.088;2023-08-21T16:54:30;21.00;;;8.50;;
20970;SDS011;10644;48.834;10.088;2023-08-21T16:56:56;21.33;;;8.60;;
20970;SDS011;10644;48.834;10.088;2023-08-21T16:59:21;23.50;;;9.47;;
20970;SDS011;10644;48.834;10.088;2023-08-21T17:01:47;20.70;;;9.03;;
20970;SDS011;10644;48.834;10.088;2023-08-21T17:04:12;27.60;;;10.27;;
20970;SDS011;10644;48.834;10.088;2023-08-21T17:06:37;18.20;;;8.50;;
20970;SDS011;10644;48.834;10.088;2023-08-21T17:09:03;22.43;;;9.13;;
20970;SDS011;10644;48.834;10.088;2023-08-21T17:11:29;21.23;;;8.00;;
20970;SDS011;10644;48.834;10.088;2023-08-21T17:13:55;23.63;;;9.37;;
20970;SDS011;10644;48.834;10.088;2023-08-21T17:16:20;26.10;;;8.97;;
20970;SDS011;10644;48.834;10.088;2023-08-21T17:18:46;23.90;;;8.67;;
20970;SDS011;10644;48.834;10.088;2023-08-21T17:21:11;30.20;;;8.87;;
20970;SDS011;10644;48.834;10.088;2023-08-21T17:23:38;20.80;;;8.70;;
20970;SDS011;10644;48.834;10.088;2023-08-21T17:26:07;21.07;;;9.67;;